createdAt,value
2019-03-12T00:00:51.089Z,2.92
2019-03-12T00:03:22.070Z,2.08
2019-03-12T00:05:53.062Z,3.55
2019-03-12T00:08:23.975Z,4.50
2019-03-12T00:10:55.044Z,4.00
2019-03-12T00:13:25.981Z,4.30
2019-03-12T00:15:56.978Z,2.80
2019-03-12T00:18:28.563Z,2.77
2019-03-12T00:20:59.817Z,2.58
2019-03-12T00:23:30.833Z,2.10
2019-03-12T00:26:01.800Z,2.80
2019-03-12T00:28:32.793Z,2.33
2019-03-12T00:31:03.785Z,2.52
2019-03-12T00:33:34.798Z,2.55
2019-03-12T00:36:05.870Z,2.12
2019-03-12T00:38:36.925Z,2.40
2019-03-12T00:41:07.855Z,2.67
2019-03-12T00:43:38.715Z,3.10
2019-03-12T00:46:09.743Z,3.58
2019-03-12T00:48:40.673Z,2.60
2019-03-12T00:51:11.605Z,1.72
2019-03-12T00:53:42.559Z,1.87
2019-03-12T00:56:13.640Z,2.10
2019-03-12T00:58:44.562Z,2.58
2019-03-12T01:01:15.570Z,2.40
2019-03-12T01:03:46.505Z,1.55
2019-03-12T01:06:17.448Z,1.50
2019-03-12T01:08:48.380Z,1.45
2019-03-12T01:11:19.315Z,1.90
2019-03-12T01:13:50.254Z,1.40
2019-03-12T01:16:21.193Z,1.60
2019-03-12T01:18:52.129Z,1.70
2019-03-12T01:21:23.089Z,1.90
2019-03-12T01:23:53.941Z,1.72
2019-03-12T01:26:24.816Z,1.82
2019-03-12T01:28:55.789Z,2.00
2019-03-12T01:31:26.743Z,1.98
2019-03-12T01:33:57.585Z,2.30
2019-03-12T01:36:28.438Z,1.90
2019-03-12T01:38:59.515Z,2.02
2019-03-12T01:41:30.486Z,1.90
2019-03-12T01:44:01.424Z,2.00
2019-03-12T01:46:32.360Z,2.35
2019-03-12T01:49:03.350Z,3.55
2019-03-12T01:51:34.418Z,2.90
2019-03-12T01:54:06.357Z,2.80
2019-03-12T01:56:37.362Z,2.77
2019-03-12T01:59:08.395Z,4.17
2019-03-12T02:01:39.493Z,2.42
2019-03-12T02:04:10.470Z,1.67
2019-03-12T02:06:41.318Z,2.30
2019-03-12T02:09:12.190Z,2.12
2019-03-12T02:11:43.185Z,3.20
2019-03-12T02:14:24.792Z,3.15
2019-03-12T02:16:55.657Z,3.50
2019-03-12T02:19:26.676Z,2.08
2019-03-12T02:21:57.773Z,2.58
2019-03-12T02:24:28.804Z,1.80
2019-03-12T02:26:59.823Z,1.87
2019-03-12T02:29:30.819Z,1.72
2019-03-12T02:32:01.772Z,1.60
2019-03-12T02:34:33.686Z,2.98
2019-03-12T02:37:05.300Z,2.02
2019-03-12T02:39:36.213Z,1.72
2019-03-12T02:42:07.159Z,1.80
2019-03-12T02:44:38.119Z,2.40
2019-03-12T02:47:08.968Z,2.58
2019-03-12T02:49:39.869Z,2.10
2019-03-12T02:52:10.874Z,1.92
2019-03-12T02:54:41.956Z,2.33
2019-03-12T02:57:12.939Z,1.60
2019-03-12T02:59:43.842Z,1.55
2019-03-12T03:02:14.758Z,1.92
2019-03-12T03:04:45.727Z,1.47
2019-03-12T03:07:18.284Z,1.40
2019-03-12T03:09:49.236Z,1.70
2019-03-12T03:12:20.175Z,1.35
2019-03-12T03:14:51.182Z,1.20
2019-03-12T03:17:22.170Z,1.20
2019-03-12T03:19:53.191Z,1.20
2019-03-12T03:22:24.126Z,1.10
2019-03-12T03:24:55.072Z,1.70
2019-03-12T03:27:29.347Z,1.65
2019-03-12T03:33:05.888Z,3.08
2019-03-12T03:35:36.932Z,3.30
2019-03-12T03:38:07.870Z,3.20
2019-03-12T03:40:38.780Z,3.33
2019-03-12T03:43:09.912Z,3.50
2019-03-12T03:45:40.955Z,3.30
2019-03-12T03:48:12.036Z,3.58
2019-03-12T03:50:43.077Z,3.70
2019-03-12T03:53:14.099Z,3.47
2019-03-12T03:55:45.032Z,3.10
2019-03-12T03:58:15.989Z,2.87
2019-03-12T04:00:47.007Z,2.75
2019-03-12T04:03:18.035Z,2.70
2019-03-12T04:05:49.075Z,2.55
2019-03-12T04:08:20.057Z,2.83
2019-03-12T04:10:51.000Z,2.87
2019-03-12T04:13:21.858Z,3.47
2019-03-12T04:15:52.829Z,3.30
2019-03-12T04:18:23.810Z,2.95
2019-03-12T04:20:54.812Z,2.87
2019-03-12T04:23:25.788Z,2.72
2019-03-12T04:25:56.725Z,1.90
2019-03-12T04:28:27.736Z,1.70
2019-03-12T04:30:58.775Z,2.15
2019-03-12T04:34:00.661Z,1.70
2019-03-12T04:36:32.806Z,2.33
2019-03-12T04:39:05.356Z,1.92
2019-03-12T04:41:37.984Z,1.90
2019-03-12T04:44:08.843Z,2.00
2019-03-12T04:46:39.974Z,1.72
2019-03-12T04:49:11.033Z,2.17
2019-03-12T04:51:42.093Z,1.95
2019-03-12T04:54:12.987Z,1.72
2019-03-12T04:56:43.940Z,2.40
2019-03-12T04:59:14.794Z,1.52
2019-03-12T05:01:45.715Z,1.60
2019-03-12T05:04:16.760Z,1.47
2019-03-12T05:06:47.798Z,1.37
2019-03-12T05:09:18.648Z,1.55
2019-03-12T05:11:49.532Z,1.47
2019-03-12T05:14:26.120Z,1.90
2019-03-12T05:17:00.444Z,1.70
2019-03-12T05:19:31.530Z,2.12
2019-03-12T05:22:02.465Z,1.95
2019-03-12T05:24:33.490Z,2.62
2019-03-12T05:27:04.547Z,3.17
2019-03-12T05:29:35.468Z,3.40
2019-03-12T05:32:09.557Z,3.10
2019-03-12T05:34:42.296Z,2.83
2019-03-12T05:37:13.397Z,3.83
2019-03-12T05:39:44.476Z,2.52
2019-03-12T05:42:15.492Z,2.62
2019-03-12T05:44:47.392Z,2.60
2019-03-12T05:47:19.566Z,2.35
2019-03-12T05:49:51.336Z,2.77
2019-03-12T05:52:22.213Z,2.42
2019-03-12T05:54:53.071Z,2.67
2019-03-12T06:00:27.851Z,2.52
2019-03-12T06:02:58.841Z,2.00
2019-03-12T06:05:29.786Z,2.92
2019-03-12T06:08:00.804Z,12.70
2019-03-12T06:10:32.037Z,7.55
2019-03-12T06:13:03.338Z,6.92
2019-03-12T06:15:34.473Z,6.97
2019-03-12T06:18:05.526Z,8.70
2019-03-12T06:20:36.762Z,41.85
2019-03-12T06:23:08.412Z,11.83
2019-03-12T06:25:39.491Z,11.33
2019-03-12T06:28:10.664Z,8.20
2019-03-12T06:30:44.312Z,8.73
2019-03-12T06:35:55.556Z,8.85
2019-03-12T06:38:31.660Z,9.73
2019-03-12T06:41:04.450Z,9.55
2019-03-12T06:43:53.525Z,11.23
2019-03-12T06:46:38.315Z,9.83
2019-03-12T06:49:13.641Z,11.83
2019-03-12T06:51:52.041Z,15.43
2019-03-12T06:54:24.729Z,15.78
2019-03-12T06:57:06.472Z,22.87
2019-03-12T06:59:39.181Z,17.87
2019-03-12T07:02:11.857Z,13.33
2019-03-12T07:04:57.059Z,14.38
2019-03-12T07:07:48.025Z,12.85
2019-03-12T07:10:32.889Z,13.30
2019-03-12T07:13:05.603Z,9.83
2019-03-12T07:15:40.932Z,12.23
2019-03-12T07:18:13.625Z,9.90
2019-03-12T07:20:48.981Z,17.23
2019-03-12T07:23:21.745Z,13.30
2019-03-12T07:25:56.938Z,12.23
2019-03-12T07:28:50.279Z,10.32
2019-03-12T07:31:28.434Z,8.65
2019-03-12T07:34:17.952Z,7.87
2019-03-12T07:36:56.133Z,6.42
2019-03-12T07:39:28.632Z,6.35
2019-03-12T07:42:03.898Z,6.30
2019-03-12T07:44:52.826Z,6.05
2019-03-12T07:47:43.445Z,6.92
2019-03-12T07:50:21.993Z,6.30
2019-03-12T07:52:54.510Z,6.08
2019-03-12T07:55:29.721Z,5.50
2019-03-12T07:58:01.394Z,4.90
2019-03-12T08:00:49.957Z,6.00
2019-03-12T08:03:31.299Z,6.65
2019-03-12T08:06:22.324Z,5.35
2019-03-12T08:09:04.162Z,7.10
2019-03-12T08:11:41.261Z,5.10
2019-03-12T08:14:13.914Z,5.83
2019-03-12T08:16:46.420Z,6.78
2019-03-12T08:19:35.161Z,6.78
2019-03-12T08:22:13.381Z,6.78
2019-03-12T08:24:45.936Z,6.47
2019-03-12T08:27:26.130Z,6.58
2019-03-12T08:30:16.728Z,7.60
2019-03-12T08:32:49.391Z,6.47
2019-03-12T08:35:24.799Z,6.95
2019-03-12T08:38:03.567Z,9.90
2019-03-12T08:40:52.050Z,10.63
2019-03-12T08:43:16.310Z,9.55
2019-03-12T08:45:49.834Z,24.12
2019-03-12T08:51:05.926Z,10.20
2019-03-12T08:53:41.593Z,9.68
2019-03-12T08:56:17.910Z,5.97
2019-03-12T08:59:08.704Z,5.30
2019-03-12T09:01:43.123Z,5.20
2019-03-12T09:04:18.241Z,5.58
2019-03-12T09:06:50.960Z,6.17
2019-03-12T09:09:24.080Z,4.30
2019-03-12T09:12:08.604Z,4.10
2019-03-12T09:14:47.007Z,7.53
2019-03-12T09:17:37.816Z,3.08
2019-03-12T09:20:27.893Z,3.42
2019-03-12T09:23:00.460Z,5.65
2019-03-12T09:25:36.175Z,5.20
2019-03-12T09:28:08.803Z,3.92
2019-03-12T09:30:51.519Z,3.27
2019-03-12T09:33:35.937Z,4.28
2019-03-12T09:36:08.597Z,2.75
2019-03-12T09:38:43.766Z,2.20
2019-03-12T09:41:28.389Z,2.67
2019-03-12T09:44:00.968Z,2.98
2019-03-12T09:46:45.537Z,9.17
2019-03-12T09:49:21.380Z,2.98
2019-03-12T09:51:56.736Z,4.03
2019-03-12T09:54:44.685Z,2.10
2019-03-12T09:57:26.340Z,2.08
2019-03-12T10:00:16.029Z,14.20
2019-03-12T10:02:47.330Z,7.37
2019-03-12T10:05:19.919Z,3.35
2019-03-12T10:08:01.714Z,10.10
2019-03-12T10:10:40.446Z,4.72
2019-03-12T10:13:28.340Z,1.47
2019-03-12T10:16:01.039Z,3.90
2019-03-12T10:18:33.627Z,2.42
2019-03-12T10:21:08.837Z,2.27
2019-03-12T10:23:41.819Z,2.20
2019-03-12T10:26:19.974Z,2.05
2019-03-12T10:28:52.633Z,1.70
2019-03-12T10:31:28.126Z,1.70
2019-03-12T10:34:10.022Z,2.98
2019-03-12T10:36:45.411Z,3.85
2019-03-12T10:39:55.488Z,4.00
2019-03-12T10:42:40.391Z,1.92
2019-03-12T10:45:29.912Z,1.55
2019-03-12T10:48:01.929Z,2.10
2019-03-12T10:50:33.019Z,1.22
2019-03-12T10:53:04.065Z,1.42
2019-03-12T10:55:35.136Z,1.37
2019-03-12T10:58:06.140Z,1.17
2019-03-12T11:00:37.800Z,0.95
2019-03-12T11:03:08.751Z,1.30
2019-03-12T11:05:46.004Z,1.10
2019-03-12T11:08:12.492Z,1.32
2019-03-12T11:10:43.454Z,1.47
2019-03-12T11:13:15.087Z,2.87
2019-03-12T11:15:46.302Z,2.67
2019-03-12T11:18:17.563Z,1.65
2019-03-12T11:20:48.554Z,3.62
2019-03-12T11:23:19.633Z,2.70
2019-03-12T11:25:50.484Z,1.40
2019-03-12T11:28:21.408Z,2.00
2019-03-12T11:30:53.539Z,1.47
2019-03-12T11:33:24.572Z,1.30
2019-03-12T11:35:55.757Z,1.60
2019-03-12T11:38:26.806Z,1.40
2019-03-12T11:40:57.851Z,1.27
2019-03-12T11:43:28.885Z,1.32
2019-03-12T11:45:59.921Z,1.50
2019-03-12T11:48:30.960Z,1.62
2019-03-12T11:51:01.947Z,1.12
2019-03-12T11:53:32.961Z,1.45
2019-03-12T11:56:04.014Z,2.62
2019-03-12T11:58:35.211Z,3.10
2019-03-12T12:01:09.082Z,2.30
2019-03-12T12:03:40.070Z,1.20
2019-03-12T12:06:11.917Z,2.10
2019-03-12T12:08:43.071Z,1.95
2019-03-12T12:11:15.465Z,2.55
2019-03-12T12:13:46.538Z,2.72
2019-03-12T12:16:17.387Z,4.60
2019-03-12T12:18:48.604Z,1.85
2019-03-12T12:21:19.587Z,2.33
2019-03-12T12:23:50.582Z,1.20
2019-03-12T12:26:21.573Z,1.42
2019-03-12T12:28:52.668Z,1.45
2019-03-12T12:31:23.546Z,1.95
2019-03-12T12:33:54.599Z,2.30
2019-03-12T12:36:25.639Z,1.22
2019-03-12T12:38:56.715Z,1.70
2019-03-12T12:41:27.658Z,2.67
2019-03-12T12:43:58.586Z,1.92
2019-03-12T12:46:30.109Z,2.25
2019-03-12T12:49:01.078Z,1.92
2019-03-12T12:51:32.202Z,1.65
2019-03-12T12:54:03.355Z,4.72
2019-03-12T12:56:34.423Z,2.50
2019-03-12T12:59:05.433Z,1.40
2019-03-12T13:01:36.502Z,1.50
2019-03-12T13:04:08.423Z,2.42
2019-03-12T13:06:39.476Z,2.92
2019-03-12T13:09:10.602Z,2.17
2019-03-12T13:11:42.973Z,1.45
2019-03-12T13:14:13.949Z,1.98
2019-03-12T13:16:44.812Z,2.65
2019-03-12T13:19:15.914Z,3.80
2019-03-12T13:21:47.024Z,3.75
2019-03-12T13:24:17.933Z,3.30
2019-03-12T13:26:49.024Z,2.08
2019-03-12T13:29:20.080Z,2.95
2019-03-12T13:31:50.965Z,3.10
2019-03-12T13:34:21.818Z,3.12
2019-03-12T13:36:52.709Z,5.25
2019-03-12T13:39:24.890Z,5.35
2019-03-12T13:41:55.911Z,1.90
2019-03-12T13:44:26.869Z,1.47
2019-03-12T13:46:57.804Z,2.15
2019-03-12T13:49:28.838Z,2.27
2019-03-12T13:52:00.149Z,2.47
2019-03-12T13:54:31.254Z,3.72
2019-03-12T13:57:02.185Z,3.72
2019-03-12T13:59:33.046Z,2.62
2019-03-12T14:02:04.186Z,1.98
2019-03-12T14:04:36.383Z,2.65
2019-03-12T14:07:07.242Z,2.45
2019-03-12T14:09:38.373Z,2.95
2019-03-12T14:12:09.348Z,1.57
2019-03-12T14:14:40.482Z,4.30
2019-03-12T14:17:11.461Z,2.05
2019-03-12T14:19:42.935Z,2.37
2019-03-12T14:22:13.918Z,2.55
2019-03-12T14:24:44.779Z,2.37
2019-03-12T14:27:15.799Z,2.10
2019-03-12T14:29:46.731Z,2.42
2019-03-12T14:32:18.404Z,2.72
2019-03-12T14:34:49.907Z,3.72
2019-03-12T14:37:20.944Z,2.98
2019-03-12T14:39:51.966Z,3.25
2019-03-12T14:42:22.975Z,4.33
2019-03-12T14:44:54.017Z,3.20
2019-03-12T14:47:24.870Z,3.58
2019-03-12T14:49:55.801Z,4.35
2019-03-12T14:52:26.823Z,5.25
2019-03-12T14:54:59.772Z,5.03
2019-03-12T14:57:30.617Z,8.60
2019-03-12T15:00:01.593Z,4.17
2019-03-12T15:02:34.036Z,6.67
2019-03-12T15:05:07.483Z,4.47
2019-03-12T15:07:38.507Z,4.17
2019-03-12T15:10:11.208Z,4.67
2019-03-12T15:12:42.185Z,4.77
2019-03-12T15:15:14.384Z,4.83
2019-03-12T15:17:45.303Z,6.30
2019-03-12T15:20:16.348Z,6.20
2019-03-12T15:22:47.203Z,6.42
2019-03-12T15:25:18.266Z,5.05
2019-03-12T15:27:49.296Z,6.35
2019-03-12T15:30:22.585Z,5.97
2019-03-12T15:32:53.547Z,4.65
2019-03-12T15:35:24.467Z,3.12
2019-03-12T15:37:55.377Z,3.80
2019-03-12T15:40:26.349Z,3.92
2019-03-12T15:42:57.389Z,8.45
2019-03-12T15:45:28.325Z,7.25
2019-03-12T15:47:59.414Z,9.23
2019-03-12T15:50:30.387Z,8.25
2019-03-12T15:53:01.407Z,6.00
2019-03-12T15:55:32.702Z,5.30
2019-03-12T15:58:03.666Z,8.13
2019-03-12T16:00:34.579Z,6.47
2019-03-12T16:03:05.683Z,3.50
2019-03-12T16:05:36.673Z,4.20
2019-03-12T16:08:07.721Z,4.20
2019-03-12T16:10:38.645Z,4.62
2019-03-12T16:13:10.747Z,2.27
2019-03-12T16:15:41.604Z,3.20
2019-03-12T16:18:14.521Z,4.50
2019-03-12T16:20:45.441Z,5.13
2019-03-12T16:23:16.492Z,5.80
2019-03-12T16:25:47.535Z,6.62
2019-03-12T16:28:18.798Z,13.85
2019-03-12T16:30:50.017Z,21.25
2019-03-12T16:33:21.366Z,19.00
2019-03-12T16:35:52.642Z,19.07
2019-03-12T16:38:24.038Z,20.75
2019-03-12T16:40:55.361Z,24.87
2019-03-12T16:43:27.016Z,24.07
2019-03-12T16:45:58.385Z,22.45
2019-03-12T16:48:29.600Z,27.75
2019-03-12T16:51:00.561Z,30.30
2019-03-12T16:53:31.684Z,28.20
2019-03-12T16:56:02.938Z,29.63
2019-03-12T16:58:34.393Z,31.75
2019-03-12T17:01:05.673Z,31.68
2019-03-12T17:03:36.874Z,33.98
2019-03-12T17:06:08.275Z,42.98
2019-03-12T17:08:39.666Z,41.63
2019-03-12T17:11:11.049Z,41.98
2019-03-12T17:13:42.445Z,44.75
2019-03-12T17:16:14.008Z,41.53
2019-03-12T17:18:45.315Z,36.50
2019-03-12T17:21:16.641Z,30.12
2019-03-12T17:23:48.006Z,31.77
2019-03-12T17:26:19.434Z,25.17
2019-03-12T17:28:50.774Z,23.38
2019-03-12T17:31:22.155Z,19.27
2019-03-12T17:33:53.469Z,18.30
2019-03-12T17:36:24.810Z,18.87
2019-03-12T17:38:56.182Z,19.62
2019-03-12T17:41:27.309Z,22.62
2019-03-12T17:43:58.387Z,23.92
2019-03-12T17:46:29.499Z,30.97
2019-03-12T17:49:00.551Z,26.65
2019-03-12T17:51:31.868Z,29.70
2019-03-12T17:54:03.005Z,29.57
2019-03-12T17:56:34.501Z,22.85
2019-03-12T17:59:05.776Z,30.17
2019-03-12T18:01:37.102Z,27.30
2019-03-12T18:04:08.446Z,30.20
2019-03-12T18:06:39.738Z,59.10
2019-03-12T18:09:11.034Z,52.83
2019-03-12T18:11:42.667Z,51.65
2019-03-12T18:14:14.153Z,46.08
2019-03-12T18:16:45.530Z,47.58
2019-03-12T18:19:16.873Z,50.80
2019-03-12T18:21:48.364Z,49.90
2019-03-12T18:24:19.619Z,44.18
2019-03-12T18:26:51.067Z,43.98
2019-03-12T18:29:23.521Z,51.00
2019-03-12T18:31:54.820Z,59.60
2019-03-12T18:34:26.119Z,59.98
2019-03-12T18:36:58.345Z,56.55
2019-03-12T18:39:29.677Z,51.73
2019-03-12T18:42:01.104Z,44.38
2019-03-12T18:44:32.477Z,49.67
2019-03-12T18:47:03.763Z,33.42
2019-03-12T18:49:35.088Z,29.05
2019-03-12T18:52:06.415Z,20.77
2019-03-12T18:54:37.554Z,21.85
2019-03-12T18:57:08.812Z,26.57
2019-03-12T18:59:40.280Z,27.10
2019-03-12T19:02:11.927Z,30.75
2019-03-12T19:04:43.270Z,26.97
2019-03-12T19:07:18.328Z,24.60
2019-03-12T19:09:47.399Z,27.42
2019-03-12T19:12:18.655Z,31.05
2019-03-12T19:14:50.195Z,34.08
2019-03-12T19:17:21.569Z,36.33
2019-03-12T19:19:52.904Z,42.25
2019-03-12T19:22:24.422Z,39.42
2019-03-12T19:24:55.731Z,49.95
2019-03-12T19:27:26.987Z,48.70
2019-03-12T19:29:58.595Z,41.73
2019-03-12T19:32:31.451Z,30.65
2019-03-12T19:35:02.818Z,32.07
2019-03-12T19:37:34.355Z,32.17
2019-03-12T19:40:11.717Z,33.02
2019-03-12T19:42:44.277Z,29.00
2019-03-12T19:45:16.288Z,31.62
2019-03-12T19:47:47.532Z,41.92
2019-03-12T19:50:22.022Z,45.67
2019-03-12T19:52:53.445Z,47.60
2019-03-12T19:55:44.996Z,45.15
2019-03-12T19:58:16.268Z,45.98
2019-03-12T20:00:48.304Z,44.18
2019-03-12T20:03:19.635Z,37.55
2019-03-12T20:05:50.976Z,41.00
2019-03-12T20:08:22.219Z,37.85
2019-03-12T20:11:26.337Z,42.40
2019-03-12T20:14:16.070Z,41.73
2019-03-12T20:17:22.879Z,41.88
2019-03-12T20:20:24.583Z,41.10
2019-03-12T20:23:31.957Z,44.90
2019-03-12T20:26:24.127Z,60.90
2019-03-12T20:29:17.953Z,50.15
2019-03-12T20:32:21.843Z,51.77
2019-03-12T20:35:13.053Z,62.43
2019-03-12T20:38:20.802Z,60.88
2019-03-12T20:41:07.350Z,60.60
2019-03-12T20:43:47.551Z,61.55
2019-03-12T20:46:55.202Z,60.28
2019-03-12T20:49:55.172Z,57.48
2019-03-12T20:52:32.206Z,53.00
2019-03-12T20:55:38.354Z,51.98
2019-03-12T20:58:31.159Z,50.23
2019-03-12T21:01:38.935Z,49.40
2019-03-12T21:04:28.749Z,55.70
2019-03-12T21:07:24.513Z,56.15
2019-03-12T21:10:32.656Z,57.27
2019-03-12T21:13:16.011Z,57.55
2019-03-12T21:15:55.908Z,54.35
2019-03-12T21:18:54.148Z,45.38
2019-03-12T21:21:34.059Z,48.13
2019-03-12T21:24:20.539Z,48.33
2019-03-12T21:27:29.773Z,46.95
2019-03-12T21:29:59.930Z,48.33
2019-03-12T21:32:31.032Z,49.23
2019-03-12T21:35:02.209Z,57.15
2019-03-12T21:37:33.423Z,52.58
2019-03-12T21:40:07.439Z,51.55
2019-03-12T21:42:38.494Z,49.10
2019-03-12T21:45:11.483Z,37.30
2019-03-12T21:47:42.511Z,44.18
2019-03-12T21:50:13.570Z,43.98
2019-03-12T21:52:44.690Z,39.23
2019-03-12T21:55:15.779Z,39.13
2019-03-12T21:57:48.132Z,39.90
2019-03-12T22:00:20.813Z,40.98
2019-03-12T22:02:51.923Z,40.25
2019-03-12T22:05:23.019Z,40.58
2019-03-12T22:07:54.217Z,38.83
2019-03-12T22:10:25.300Z,39.90
2019-03-12T22:12:56.568Z,41.08
2019-03-12T22:15:29.906Z,40.15
2019-03-12T22:18:01.356Z,39.38
2019-03-12T22:20:32.438Z,40.80
2019-03-12T22:23:05.149Z,39.23
2019-03-12T22:25:37.202Z,35.68
2019-03-12T22:28:08.385Z,36.50
2019-03-12T22:30:39.551Z,37.05
2019-03-12T22:33:10.640Z,33.88
2019-03-12T22:35:41.672Z,34.25
2019-03-12T22:38:12.987Z,35.78
2019-03-12T22:40:43.998Z,35.65
2019-03-12T22:43:15.009Z,35.17
2019-03-12T22:45:46.156Z,34.05
2019-03-12T22:48:17.179Z,34.27
2019-03-12T22:50:48.222Z,34.03
2019-03-12T22:53:19.196Z,33.15
2019-03-12T22:55:50.316Z,37.93
2019-03-12T22:58:21.461Z,38.15
2019-03-12T23:01:10.626Z,37.98
2019-03-12T23:03:59.319Z,36.93
2019-03-12T23:06:48.178Z,33.60
2019-03-12T23:09:37.691Z,33.75
2019-03-12T23:12:10.320Z,24.40
2019-03-12T23:14:43.045Z,24.83
2019-03-12T23:17:15.769Z,27.22
2019-03-12T23:19:48.370Z,29.07
2019-03-12T23:22:19.658Z,30.92
2019-03-12T23:24:50.806Z,24.40
2019-03-12T23:27:22.036Z,29.92
2019-03-12T23:29:53.209Z,25.32
2019-03-12T23:32:24.320Z,23.57
2019-03-12T23:34:55.359Z,22.70
2019-03-12T23:37:26.432Z,14.20
2019-03-12T23:39:57.573Z,13.78
2019-03-12T23:42:28.626Z,10.60
2019-03-12T23:44:59.658Z,9.03
2019-03-12T23:47:30.675Z,8.33
2019-03-12T23:50:01.701Z,9.38
2019-03-12T23:52:33.721Z,11.35
2019-03-12T23:55:07.143Z,8.70
2019-03-12T23:57:38.090Z,7.10
